National Weather Service United States Department of Commerce

Threat For Heavy Rainfall And Flash Flooding Continues From The Mid South To The Mid Atlantic; Critical Fire Weather Over The Western U.S.

A slow moving low pressure system will bring a continued threat for heavy rainfall and flooding from portions of the Mid South to the Ohio Valley and Mid Atlantic through midweek. Some areas could see locally significant flooding. Out west,very dry humidity combined with gusty winds will lead to a continued threat for critical fire weather and dry thunderstorms. Read More >


000
FTPA31 PHFO 250529
TAFSTU
TAF
NSTU 250529Z 2506/2606 12012KT P6SM SCT020 SCT040
FM260000 09014KT P6SM FEW020 SCT040 SCT100=


036
SAZS31 NSTU 250850
MTRPPG
METAR NSTU 250850Z 13015KT 10SM SCT019 BKN040 27/23 A2989 RMK SLP124
8/800 T02720232 52020=

METAR Formatted Surface Weather Observation  Issued: 09/24/2018 09:50:17 PM SST

NSTU Observation History

 

Significant Weather Charts